Time;durP1;ratioP1;P1;durP2;ratioP2;P2;SDS_P1;SDS_P2;PMS_P1;PMS_P2;Temp;Humidity;BMP_temperature;BMP_pressure;BME280_temperature;BME280_humidity;BME280_pressure;Samples;Min_cycle;Max_cycle;Signal;HPM_P1;HPM_P2
2021/12/04 00:01:07;;;;;;;0.25;0.15;;;22.30;31.30;;;;;;5054043;28;20031;-52
2021/12/04 00:03:32;;;;;;;0.10;0.10;;;22.30;31.30;;;;;;5055056;28;20099;-53
2021/12/04 00:06:03;;;;;;;0.15;0.15;;;22.20;31.30;;;;;;5048472;28;20029;-53
2021/12/04 00:08:33;;;;;;;0.17;0.10;;;22.20;31.30;;;;;;5037511;28;20115;-53
2021/12/04 00:10:59;;;;;;;0.30;0.30;;;22.20;31.30;;;;;;5054363;28;20028;-48
2021/12/04 00:13:24;;;;;;;0.30;0.22;;;22.20;31.30;;;;;;5054808;28;20028;-53
2021/12/04 00:15:50;;;;;;;0.15;0.15;;;22.20;31.40;;;;;;5051298;28;20033;-51
2021/12/04 00:18:16;;;;;;;0.40;0.17;;;22.20;31.40;;;;;;5052047;28;20032;-50
2021/12/04 00:20:42;;;;;;;0.10;0.10;;;22.20;31.40;;;;;;5054976;28;20099;-55
2021/12/04 00:23:08;;;;;;;0.32;0.20;;;22.20;31.40;;;;;;5020667;28;20436;-50
2021/12/04 00:25:33;;;;;;;0.30;0.20;;;22.20;31.50;;;;;;5055185;28;20028;-52
2021/12/04 00:27:59;;;;;;;0.28;0.22;;;22.20;31.50;;;;;;5044484;28;20479;-56
2021/12/04 00:30:26;;;;;;;0.32;0.30;;;22.20;31.50;;;;;;5054279;28;20052;-54
2021/12/04 00:32:59;;;;;;;0.65;0.20;;;22.20;31.50;;;;;;5052821;28;20036;-52
2021/12/04 00:51:18;;;;;;;0.35;0.20;;;22.10;31.60;;;;;;5052293;28;20581;-52
2021/12/04 00:53:44;;;;;;;0.10;0.10;;;22.10;31.60;;;;;;5054428;28;20118;-49
2021/12/04 00:56:09;;;;;;;0.20;0.13;;;22.10;31.60;;;;;;5053206;28;20119;-52
2021/12/04 00:58:35;;;;;;;0.38;0.38;;;22.10;31.70;;;;;;5055255;28;20070;-49
2021/12/04 01:01:01;;;;;;;0.17;0.17;;;22.00;31.60;;;;;;5052873;28;20028;-51
2021/12/04 01:03:27;;;;;;;0.20;0.20;;;22.10;31.70;;;;;;5054608;28;20151;-49
2021/12/04 01:05:53;;;;;;;0.17;0.17;;;22.00;31.70;;;;;;5053998;28;20108;-51
2021/12/04 01:08:19;;;;;;;0.20;0.20;;;22.10;31.70;;;;;;5053761;28;20021;-49
2021/12/04 01:10:45;;;;;;;0.20;0.20;;;22.00;31.70;;;;;;5054122;28;20025;-47
2021/12/04 01:13:11;;;;;;;0.20;0.20;;;22.10;31.80;;;;;;5052524;28;20033;-46
2021/12/04 01:15:41;;;;;;;0.95;0.30;;;22.00;31.70;;;;;;5053273;28;20041;-52
2021/12/04 01:18:07;;;;;;;0.38;0.20;;;22.00;31.70;;;;;;5053576;28;20043;-52
2021/12/04 01:20:33;;;;;;;0.20;0.20;;;22.00;31.70;;;;;;5053773;28;20078;-47
2021/12/04 01:22:59;;;;;;;0.22;0.13;;;22.00;31.70;;;;;;5053457;28;20032;-50
2021/12/04 01:25:24;;;;;;;0.40;0.30;;;22.00;31.70;;;;;;5051926;28;20387;-51
2021/12/04 01:27:50;;;;;;;0.20;0.10;;;22.00;31.80;;;;;;5044122;28;20025;-51
2021/12/04 01:30:16;;;;;;;0.40;0.10;;;22.00;31.80;;;;;;5053348;28;20048;-52
2021/12/04 01:32:42;;;;;;;0.30;0.20;;;22.00;31.80;;;;;;5053977;28;20064;-50
2021/12/04 01:35:08;;;;;;;0.32;0.20;;;22.00;31.80;;;;;;5040656;28;20060;-51
2021/12/04 01:37:34;;;;;;;0.13;0.10;;;22.00;31.80;;;;;;5038889;28;20356;-56
2021/12/04 01:40:00;;;;;;;0.20;0.10;;;22.00;31.90;;;;;;5053770;28;20017;-56
2021/12/04 01:42:25;;;;;;;0.30;0.20;;;22.00;31.90;;;;;;5040640;28;20367;-47
2021/12/04 01:44:52;;;;;;;0.20;0.20;;;21.90;31.80;;;;;;5054004;28;20082;-51
2021/12/04 01:47:20;;;;;;;0.30;0.15;;;21.90;31.80;;;;;;5049050;28;20029;-52
2021/12/04 01:49:48;;;;;;;0.47;0.20;;;21.90;31.90;;;;;;5052527;28;20082;-51
2021/12/04 01:52:17;;;;;;;0.10;0.10;;;21.90;31.90;;;;;;5054114;28;20043;-52
2021/12/04 01:54:44;;;;;;;0.45;0.25;;;21.90;31.90;;;;;;5053151;28;20059;-50
2021/12/04 01:57:14;;;;;;;0.20;0.20;;;21.90;31.90;;;;;;5053123;28;20036;-48
2021/12/04 01:59:40;;;;;;;0.30;0.20;;;21.90;31.90;;;;;;5053420;28;20444;-51
2021/12/04 02:02:06;;;;;;;0.13;0.13;;;21.90;32.00;;;;;;5037593;28;20104;-48
2021/12/04 02:04:32;;;;;;;0.30;0.30;;;21.90;32.00;;;;;;5056268;28;20028;-47
2021/12/04 02:07:02;;;;;;;0.52;0.32;;;21.90;32.00;;;;;;5057566;28;20075;-50
2021/12/04 02:09:29;;;;;;;0.32;0.20;;;21.90;32.00;;;;;;5056059;28;20435;-51
2021/12/04 02:11:55;;;;;;;0.30;0.10;;;21.80;32.00;;;;;;5057955;28;20064;-50
2021/12/04 02:14:21;;;;;;;0.13;0.13;;;21.80;32.00;;;;;;5056194;28;20060;-49
2021/12/04 02:16:46;;;;;;;0.10;0.10;;;21.90;32.00;;;;;;5056604;28;20032;-49
2021/12/04 02:19:13;;;;;;;0.10;0.10;;;21.80;32.00;;;;;;5048360;28;20037;-49
2021/12/04 02:21:39;;;;;;;0.20;0.20;;;21.80;32.00;;;;;;5056838;28;20068;-49
2021/12/04 02:24:05;;;;;;;0.38;0.10;;;21.80;32.00;;;;;;5054112;28;20392;-53
2021/12/04 02:26:31;;;;;;;0.22;0.20;;;21.80;32.00;;;;;;5057026;28;20029;-51
2021/12/04 02:28:58;;;;;;;0.17;0.17;;;21.80;32.00;;;;;;5056360;28;20035;-53
2021/12/04 02:31:25;;;;;;;0.20;0.20;;;21.80;32.00;;;;;;5055790;28;20078;-53
2021/12/04 02:33:51;;;;;;;0.10;0.10;;;21.80;32.10;;;;;;5053518;28;20048;-51
2021/12/04 02:36:17;;;;;;;0.40;0.20;;;21.80;32.00;;;;;;5035461;28;20021;-51
2021/12/04 02:38:49;;;;;;;0.20;0.10;;;21.80;32.10;;;;;;5056215;28;20095;-50
2021/12/04 02:41:15;;;;;;;0.15;0.10;;;21.80;32.10;;;;;;5053147;28;20025;-52
2021/12/04 02:43:40;;;;;;;0.32;0.30;;;21.80;32.10;;;;;;5056164;28;20031;-49
2021/12/04 02:46:07;;;;;;;0.20;0.13;;;21.80;32.10;;;;;;5057129;28;20436;-49
2021/12/04 02:48:33;;;;;;;0.20;0.20;;;21.80;32.10;;;;;;5054889;28;20033;-52
2021/12/04 02:50:59;;;;;;;0.55;0.40;;;21.80;32.10;;;;;;5057088;28;20118;-53
2021/12/04 02:53:25;;;;;;;0.22;0.20;;;21.70;32.10;;;;;;5055434;28;20440;-55
2021/12/04 02:55:53;;;;;;;0.20;0.20;;;21.80;32.20;;;;;;5044177;28;20052;-56
2021/12/04 02:58:19;;;;;;;0.32;0.20;;;21.70;32.10;;;;;;5042192;28;20100;-51
2021/12/04 03:00:50;;;;;;;0.08;0.05;;;21.70;32.10;;;;;;5055498;28;20035;-55
2021/12/04 03:03:19;;;;;;;0.22;0.13;;;21.70;32.10;;;;;;5055931;28;20025;-55
2021/12/04 03:05:50;;;;;;;0.35;0.20;;;21.70;32.10;;;;;;5055525;28;20094;-49
2021/12/04 03:08:16;;;;;;;0.20;0.10;;;21.70;32.80;;;;;;5046044;28;20444;-55
2021/12/04 03:10:42;;;;;;;0.20;0.20;;;21.70;32.20;;;;;;5053579;28;20031;-49
2021/12/04 03:13:10;;;;;;;0.28;0.10;;;21.70;32.20;;;;;;5038549;28;20289;-51
2021/12/04 03:15:43;;;;;;;0.20;0.20;;;21.70;32.20;;;;;;5054445;28;20061;-52
2021/12/04 03:18:09;;;;;;;0.35;0.22;;;21.70;32.20;;;;;;5056276;28;20036;-52
2021/12/04 03:20:41;;;;;;;0.10;0.10;;;21.70;32.20;;;;;;5055646;28;20021;-50
2021/12/04 03:23:15;;;;;;;0.20;0.20;;;21.70;32.20;;;;;;5055592;28;20446;-55
2021/12/04 03:25:43;;;;;;;0.20;0.20;;;21.70;32.20;;;;;;5047836;28;20444;-50
2021/12/04 03:28:12;;;;;;;0.20;0.20;;;21.60;32.20;;;;;;5056162;28;20275;-53
2021/12/04 03:31:16;;;;;;;0.90;0.47;;;21.60;32.30;;;;;;5055604;28;20064;-52
2021/12/04 03:41:23;;;;;;;0.20;0.17;;;21.60;32.40;;;;;;5052704;28;20039;-51
2021/12/04 03:43:49;;;;;;;0.30;0.20;;;21.50;32.40;;;;;;5055494;28;20020;-51
2021/12/04 03:46:16;;;;;;;0.15;0.15;;;21.60;32.50;;;;;;5055528;28;20039;-52
2021/12/04 03:51:08;;;;;;;0.10;0.10;;;21.50;32.40;;;;;;5044076;28;20452;-50
2021/12/04 03:53:35;;;;;;;0.30;0.20;;;21.60;32.50;;;;;;5046311;28;20112;-49
2021/12/04 03:56:01;;;;;;;0.40;0.30;;;21.50;32.40;;;;;;5049337;28;20055;-48
2021/12/04 03:58:27;;;;;;;0.38;0.22;;;21.50;32.40;;;;;;5050447;28;20052;-48
2021/12/04 04:00:53;;;;;;;0.20;0.20;;;21.50;32.40;;;;;;5047337;28;20020;-51
2021/12/04 04:03:19;;;;;;;0.43;0.28;;;21.50;32.40;;;;;;5054510;28;20349;-49
2021/12/04 04:05:45;;;;;;;0.20;0.20;;;21.50;32.40;;;;;;5055109;28;20025;-50
2021/12/04 04:08:12;;;;;;;0.65;0.30;;;21.50;32.40;;;;;;5054307;28;20087;-48
2021/12/04 04:10:38;;;;;;;0.70;0.20;;;21.50;32.40;;;;;;5054348;28;20120;-49
2021/12/04 04:13:07;;;;;;;0.68;0.22;;;21.50;32.40;;;;;;5052704;28;20479;-55
2021/12/04 04:15:33;;;;;;;0.20;0.20;;;21.50;32.40;;;;;;5053665;28;20041;-47
2021/12/04 04:17:59;;;;;;;0.20;0.20;;;21.50;32.40;;;;;;5045695;28;20025;-47
2021/12/04 04:20:25;;;;;;;0.32;0.20;;;21.50;32.40;;;;;;5049411;28;20501;-48
2021/12/04 04:22:51;;;;;;;0.35;0.28;;;21.50;32.40;;;;;;5053992;28;20036;-48
2021/12/04 04:25:17;;;;;;;0.20;0.20;;;21.50;32.40;;;;;;5054255;28;20033;-49
2021/12/04 04:27:44;;;;;;;0.65;0.38;;;21.50;32.40;;;;;;5052941;28;20025;-49
2021/12/04 04:30:16;;;;;;;0.28;0.20;;;21.50;32.40;;;;;;5054119;28;20431;-47
2021/12/04 04:32:43;;;;;;;0.20;0.10;;;21.50;32.50;;;;;;5050804;28;20087;-49
2021/12/04 04:35:14;;;;;;;0.32;0.30;;;21.50;32.50;;;;;;5041023;28;20108;-49
2021/12/04 05:02:25;;;;;;;0.60;0.38;;;21.40;32.70;;;;;;5053840;28;20150;-52
2021/12/04 05:10:41;;;;;;;0.57;0.40;;;21.30;32.80;;;;;;5053117;28;20124;-52
2021/12/04 05:13:10;;;;;;;0.57;0.47;;;21.30;32.80;;;;;;5049114;28;20391;-53
2021/12/04 05:15:42;;;;;;;0.52;0.32;;;21.30;32.80;;;;;;5052945;28;20033;-46
2021/12/04 05:20:38;;;;;;;0.63;0.60;;;21.30;32.80;;;;;;5035751;28;20451;-54
2021/12/04 05:23:07;;;;;;;0.32;0.30;;;21.30;32.80;;;;;;5053962;28;20347;-52
2021/12/04 05:25:36;;;;;;;1.08;0.50;;;21.40;32.90;;;;;;5044271;28;20029;-50
2021/12/04 05:28:03;;;;;;;0.65;0.40;;;21.30;32.80;;;;;;5053331;28;20029;-48
2021/12/04 05:30:30;;;;;;;0.80;0.50;;;21.30;32.80;;;;;;5045034;28;20025;-56
2021/12/04 05:32:56;;;;;;;1.38;0.60;;;21.40;32.90;;;;;;5032843;28;20029;-48
2021/12/04 05:35:22;;;;;;;0.85;0.43;;;21.30;32.80;;;;;;5046654;28;20043;-48
2021/12/04 05:37:48;;;;;;;1.02;0.50;;;21.30;32.90;;;;;;5056677;28;20013;-49
2021/12/04 05:40:15;;;;;;;1.27;0.40;;;21.30;32.90;;;;;;5056751;28;20108;-53
2021/12/04 05:42:43;;;;;;;0.80;0.50;;;21.30;32.90;;;;;;5057713;28;20048;-54
2021/12/04 05:45:17;;;;;;;0.65;0.55;;;21.30;32.90;;;;;;5046495;28;20032;-53
2021/12/04 05:47:49;;;;;;;1.23;0.65;;;21.30;32.90;;;;;;5055955;28;20047;-48
2021/12/04 05:55:15;;;;;;;0.60;0.40;;;21.30;33.00;;;;;;5056139;28;20106;-51
2021/12/04 05:57:41;;;;;;;0.80;0.52;;;21.30;33.00;;;;;;5057535;28;20324;-50
2021/12/04 06:00:20;;;;;;;1.00;0.47;;;21.30;33.00;;;;;;5056431;28;20095;-54
2021/12/04 06:02:47;;;;;;;0.93;0.57;;;21.30;33.00;;;;;;5056443;28;20036;-48
2021/12/04 06:05:13;;;;;;;1.02;0.70;;;21.30;33.00;;;;;;5054372;28;20021;-47
2021/12/04 06:07:39;;;;;;;1.15;0.63;;;21.30;33.10;;;;;;5037634;28;20117;-49
2021/12/04 06:10:06;;;;;;;0.63;0.50;;;21.30;33.00;;;;;;5055766;28;20451;-49
2021/12/04 06:12:32;;;;;;;0.57;0.50;;;21.30;33.10;;;;;;5056802;28;20103;-49
2021/12/04 06:14:59;;;;;;;0.90;0.60;;;21.30;33.10;;;;;;5046587;28;20037;-49
2021/12/04 06:17:28;;;;;;;1.15;0.50;;;21.30;33.10;;;;;;5041089;28;20022;-48
2021/12/04 06:22:43;;;;;;;1.40;0.52;;;21.20;33.10;;;;;;5057251;28;20439;-53
2021/12/04 06:25:15;;;;;;;1.48;0.63;;;21.20;33.10;;;;;;5056297;28;20036;-52
2021/12/04 06:27:42;;;;;;;0.80;0.63;;;21.30;33.10;;;;;;5057488;28;20100;-52
2021/12/04 06:30:12;;;;;;;1.45;0.70;;;21.20;33.10;;;;;;5048944;28;20488;-47
2021/12/04 06:32:38;;;;;;;1.88;0.80;;;21.20;33.10;;;;;;5056907;28;20020;-52
2021/12/04 06:35:09;;;;;;;1.20;0.80;;;21.20;33.10;;;;;;5055729;28;20123;-52
2021/12/04 06:37:35;;;;;;;1.73;0.70;;;21.20;33.10;;;;;;5057509;28;20025;-50
2021/12/04 06:40:02;;;;;;;1.00;0.50;;;21.20;33.20;;;;;;5055686;28;20059;-51
2021/12/04 06:42:28;;;;;;;1.70;0.80;;;21.20;33.20;;;;;;5055957;28;20149;-51
2021/12/04 06:44:55;;;;;;;0.95;0.52;;;21.20;33.30;;;;;;5054547;28;20039;-49
2021/12/04 06:47:22;;;;;;;0.93;0.60;;;21.20;33.30;;;;;;5056341;28;20036;-47
2021/12/04 06:49:50;;;;;;;1.05;0.65;;;21.20;33.30;;;;;;5055751;28;20447;-47
2021/12/04 06:52:21;;;;;;;0.70;0.60;;;21.20;33.30;;;;;;5038042;28;20328;-49
2021/12/04 06:54:58;;;;;;;1.30;0.65;;;21.20;33.30;;;;;;5053475;28;20045;-51
2021/12/04 06:57:25;;;;;;;0.70;0.60;;;21.20;33.30;;;;;;5055622;28;20032;-48
2021/12/04 06:59:54;;;;;;;0.73;0.52;;;21.20;33.30;;;;;;5056303;28;20056;-57
2021/12/04 07:02:20;;;;;;;1.15;0.65;;;21.20;33.30;;;;;;5053056;28;20024;-50
2021/12/04 07:04:46;;;;;;;0.90;0.50;;;21.20;33.30;;;;;;5052943;28;20074;-52
2021/12/04 07:07:13;;;;;;;1.17;0.75;;;21.20;33.30;;;;;;5055102;28;20082;-54
2021/12/04 07:09:41;;;;;;;0.88;0.60;;;21.20;33.30;;;;;;5055666;28;20111;-54
2021/12/04 07:12:08;;;;;;;0.88;0.52;;;21.20;33.30;;;;;;5054880;28;20431;-53
2021/12/04 07:14:34;;;;;;;1.23;0.68;;;21.20;33.30;;;;;;5051361;28;20029;-56
2021/12/04 07:17:02;;;;;;;1.00;0.80;;;21.20;33.40;;;;;;5055863;28;20108;-53
2021/12/04 07:19:29;;;;;;;1.13;0.60;;;21.20;33.40;;;;;;5044315;28;20044;-58
2021/12/04 07:21:55;;;;;;;1.92;0.80;;;21.20;33.40;;;;;;5055587;28;20063;-55
2021/12/04 07:24:21;;;;;;;1.10;0.50;;;21.20;33.40;;;;;;5055224;28;20060;-52
2021/12/04 07:26:47;;;;;;;1.05;0.70;;;21.10;33.40;;;;;;5054642;28;20029;-50
2021/12/04 07:29:13;;;;;;;2.40;0.73;;;21.20;33.50;;;;;;5040690;28;20022;-49
2021/12/04 07:31:39;;;;;;;1.15;0.70;;;21.20;33.50;;;;;;5056534;28;20083;-50
2021/12/04 07:34:05;;;;;;;1.73;0.65;;;21.20;33.50;;;;;;5049840;28;20083;-52
2021/12/04 07:36:32;;;;;;;1.55;1.05;;;21.20;33.50;;;;;;5036440;28;20018;-56
2021/12/04 07:38:59;;;;;;;0.68;0.47;;;21.10;33.40;;;;;;5049832;28;22032;-53
2021/12/04 07:41:26;;;;;;;1.35;0.88;;;21.10;33.50;;;;;;5055052;28;20032;-53
2021/12/04 07:43:53;;;;;;;1.33;0.70;;;21.10;33.60;;;;;;5051007;28;20033;-49
2021/12/04 07:46:18;;;;;;;1.70;1.23;;;21.10;33.80;;;;;;5054829;28;20059;-47
2021/12/04 07:48:46;;;;;;;1.00;0.80;;;21.10;33.80;;;;;;5054011;28;20335;-50
2021/12/04 07:51:13;;;;;;;1.23;0.75;;;21.10;33.80;;;;;;5035135;28;20028;-48
2021/12/04 07:53:39;;;;;;;2.60;0.95;;;21.10;33.80;;;;;;5051808;28;20305;-52
2021/12/04 07:56:07;;;;;;;2.28;0.80;;;21.00;33.80;;;;;;5051843;28;20131;-53
2021/12/04 07:58:33;;;;;;;2.85;1.15;;;21.00;34.00;;;;;;5053936;28;20032;-55
2021/12/04 08:00:59;;;;;;;1.80;1.13;;;21.10;34.20;;;;;;5052212;28;20052;-49
2021/12/04 08:03:25;;;;;;;2.92;0.90;;;21.10;34.60;;;;;;5047241;28;20404;-50
2021/12/04 08:05:51;;;;;;;1.48;0.63;;;21.20;34.40;;;;;;5042941;28;20033;-52
2021/12/04 08:08:17;;;;;;;2.88;0.90;;;21.20;34.40;;;;;;5046351;28;20028;-50
2021/12/04 08:10:43;;;;;;;2.70;1.02;;;21.40;34.30;;;;;;5049601;28;20039;-53
2021/12/04 08:13:10;;;;;;;2.10;0.82;;;21.40;34.20;;;;;;5046429;28;20335;-54
2021/12/04 08:15:37;;;;;;;2.22;0.85;;;21.50;34.20;;;;;;5045943;28;20124;-53
2021/12/04 08:18:07;;;;;;;2.03;1.10;;;21.70;34.20;;;;;;5046496;28;20021;-55
2021/12/04 08:20:33;;;;;;;2.08;0.90;;;21.80;34.10;;;;;;5042190;28;20029;-51
2021/12/04 08:22:59;;;;;;;1.70;0.85;;;21.90;34.00;;;;;;5043434;28;20345;-51
2021/12/04 08:25:26;;;;;;;1.73;0.98;;;22.00;33.90;;;;;;5043618;28;20021;-54
2021/12/04 08:27:52;;;;;;;1.80;0.90;;;22.10;33.80;;;;;;5040678;28;20044;-52
2021/12/04 08:30:23;;;;;;;1.67;0.80;;;22.20;33.60;;;;;;5033863;28;20395;-52
2021/12/04 08:32:52;;;;;;;1.58;0.80;;;22.30;33.50;;;;;;5042534;28;20459;-54
2021/12/04 08:35:18;;;;;;;1.65;0.90;;;22.40;33.40;;;;;;5040388;28;20103;-54
2021/12/04 08:37:45;;;;;;;2.08;0.88;;;22.50;33.30;;;;;;5042014;28;20029;-51
2021/12/04 08:40:14;;;;;;;3.17;1.13;;;22.60;33.30;;;;;;5041844;28;20336;-54
2021/12/04 08:42:43;;;;;;;3.22;0.88;;;22.60;33.20;;;;;;5041231;28;20025;-54
2021/12/04 08:45:10;;;;;;;2.35;1.10;;;22.70;33.10;;;;;;5046306;28;20032;-49
2021/12/04 08:47:38;;;;;;;2.47;1.10;;;22.80;33.10;;;;;;5046336;28;20033;-53
2021/12/04 08:50:12;;;;;;;1.92;0.95;;;22.90;33.10;;;;;;5043271;28;20426;-54
2021/12/04 08:52:38;;;;;;;4.25;1.20;;;22.90;32.90;;;;;;5038319;28;20033;-46
2021/12/04 08:55:05;;;;;;;1.73;0.98;;;23.00;32.90;;;;;;5043207;28;20091;-48
2021/12/04 08:57:31;;;;;;;2.08;0.80;;;23.10;32.90;;;;;;5053861;28;20021;-46
2021/12/04 08:59:57;;;;;;;2.67;1.00;;;23.20;32.80;;;;;;5048229;28;20050;-52
2021/12/04 09:02:23;;;;;;;3.28;1.23;;;23.20;32.70;;;;;;5043882;28;20424;-56
2021/12/04 09:04:50;;;;;;;2.13;0.98;;;23.20;32.60;;;;;;5054172;28;20024;-51
2021/12/04 09:07:18;;;;;;;1.38;0.80;;;23.30;32.60;;;;;;5041730;28;20345;-50
2021/12/04 09:09:45;;;;;;;2.05;1.00;;;23.40;32.60;;;;;;5043443;28;20502;-50
2021/12/04 09:12:12;;;;;;;2.35;1.00;;;23.40;32.50;;;;;;5045554;28;20021;-55
2021/12/04 09:14:41;;;;;;;2.45;1.05;;;23.50;32.40;;;;;;5046943;28;20471;-55
2021/12/04 09:17:10;;;;;;;2.25;1.20;;;23.50;32.30;;;;;;5045984;28;20033;-54
2021/12/04 09:19:36;;;;;;;1.92;0.90;;;23.60;32.30;;;;;;5047344;28;20037;-53
2021/12/04 09:22:04;;;;;;;2.40;1.10;;;23.60;32.80;;;;;;5046309;28;20044;-52
2021/12/04 09:24:39;;;;;;;2.13;1.00;;;23.60;32.10;;;;;;5050766;28;20072;-52
2021/12/04 09:27:20;;;;;;;1.70;1.00;;;23.70;32.10;;;;;;5047241;28;20051;-46
2021/12/04 09:40:39;;;;;;;1.63;1.05;;;23.90;31.90;;;;;;5029137;28;20413;-56
2021/12/04 10:16:09;;;;;;;1.10;0.70;;;24.30;31.20;;;;;;4975678;28;20450;-52
2021/12/04 10:35:00;;;;;;;2.50;1.00;;;24.00;31.30;;;;;;5056931;28;20102;-51
2021/12/04 10:37:29;;;;;;;1.58;0.93;;;24.00;31.40;;;;;;5039334;28;20033;-50
2021/12/04 10:40:08;;;;;;;2.22;1.30;;;23.90;31.40;;;;;;5056774;28;20032;-51
2021/12/04 10:42:51;;;;;;;2.33;1.17;;;23.90;31.40;;;;;;5056941;28;20032;-51
2021/12/04 10:45:17;;;;;;;1.90;1.10;;;23.90;31.40;;;;;;5057357;28;20036;-49
2021/12/04 10:47:52;;;;;;;2.70;1.23;;;23.80;31.40;;;;;;5056940;28;20079;-50
2021/12/04 10:50:39;;;;;;;1.50;0.98;;;23.80;31.40;;;;;;5057243;28;20033;-46
2021/12/04 10:53:11;;;;;;;2.72;1.30;;;23.80;31.50;;;;;;5056694;28;20029;-53
2021/12/04 11:21:45;;;;;;;2.10;1.00;;;23.90;31.40;;;;;;5056027;28;20451;-58
2021/12/04 11:45:22;;;;;;;2.50;0.90;;;23.90;31.30;;;;;;5026518;28;20038;-51
2021/12/04 11:47:53;;;;;;;1.08;0.80;;;23.90;31.40;;;;;;5041753;28;20025;-55
2021/12/04 11:50:27;;;;;;;1.42;1.00;;;23.90;31.60;;;;;;5042643;28;20436;-51
2021/12/04 11:52:59;;;;;;;1.77;0.80;;;23.90;31.70;;;;;;5042774;28;20029;-55
2021/12/04 11:55:27;;;;;;;1.20;0.90;;;23.90;31.80;;;;;;5042802;28;20068;-55
2021/12/04 11:57:55;;;;;;;1.50;0.70;;;23.90;31.80;;;;;;5044324;28;20032;-55
2021/12/04 12:00:25;;;;;;;1.25;0.77;;;24.00;31.90;;;;;;5043634;28;20341;-51
2021/12/04 12:03:04;;;;;;;2.83;0.90;;;24.00;31.80;;;;;;5049257;28;20060;-53
2021/12/04 12:05:30;;;;;;;1.50;0.80;;;24.00;31.70;;;;;;5054269;28;20074;-50
2021/12/04 12:07:58;;;;;;;1.02;0.60;;;24.00;31.70;;;;;;5054261;28;20024;-58
2021/12/04 12:10:27;;;;;;;1.60;0.80;;;24.00;31.60;;;;;;5051924;28;20055;-54
2021/12/04 12:13:05;;;;;;;0.90;0.70;;;24.00;31.50;;;;;;5054692;28;20021;-57
2021/12/04 12:15:36;;;;;;;2.88;0.75;;;24.00;31.50;;;;;;5039142;28;20040;-54
2021/12/04 12:18:18;;;;;;;0.88;0.70;;;24.00;31.60;;;;;;5055122;28;20021;-51
2021/12/04 12:20:58;;;;;;;0.93;0.60;;;24.00;31.50;;;;;;5054743;28;20332;-57
2021/12/04 12:23:32;;;;;;;1.00;0.60;;;23.90;31.60;;;;;;5054976;28;20028;-48
2021/12/04 12:26:25;;;;;;;1.00;0.60;;;23.90;31.60;;;;;;5054896;28;20040;-52
2021/12/04 12:37:33;;;;;;;0.65;0.40;;;23.90;31.50;;;;;;5053903;28;20098;-50
2021/12/04 12:40:01;;;;;;;;;;;23.90;31.40;;;;;;5027066;28;20048;-52
2021/12/04 12:42:37;;;;;;;0.77;0.55;;;23.80;31.50;;;;;;5042288;28;20006;-51
2021/12/04 12:45:18;;;;;;;0.90;0.50;;;23.80;31.50;;;;;;5054825;28;20309;-50
2021/12/04 12:48:03;;;;;;;1.17;0.70;;;23.80;31.50;;;;;;5051407;28;20036;-54
2021/12/04 12:50:37;;;;;;;2.15;0.90;;;23.80;31.50;;;;;;5043969;28;20037;-55
2021/12/04 12:53:16;;;;;;;2.67;1.25;;;23.70;31.60;;;;;;5051799;28;20039;-49
2021/12/04 12:55:45;;;;;;;2.15;0.50;;;23.70;31.80;;;;;;5041147;28;20472;-50
2021/12/04 12:58:24;;;;;;;1.05;0.55;;;23.70;31.80;;;;;;5034767;28;20419;-52
2021/12/04 13:12:05;;;;;;;0.90;0.60;;;23.60;32.00;;;;;;5034683;28;20033;-50
2021/12/04 13:14:34;;;;;;;0.50;0.33;;;23.60;32.00;;;;;;5034967;28;20053;-50
2021/12/04 13:17:03;;;;;;;0.32;0.32;;;23.60;32.00;;;;;;5051702;28;20314;-49
2021/12/04 13:19:30;;;;;;;0.47;0.47;;;23.60;32.10;;;;;;5054568;28;20440;-54
2021/12/04 13:22:02;;;;;;;0.93;0.50;;;23.60;32.10;;;;;;5054867;28;20111;-51
2021/12/04 13:24:36;;;;;;;0.77;0.60;;;23.50;32.00;;;;;;5054593;28;20032;-53
2021/12/04 13:29:50;;;;;;;0.60;0.50;;;23.50;32.00;;;;;;5052712;28;20037;-50
2021/12/04 13:32:26;;;;;;;0.45;0.45;;;23.50;32.10;;;;;;5054499;28;20047;-54
2021/12/04 13:34:52;;;;;;;1.08;0.65;;;23.50;32.10;;;;;;5043124;28;20034;-50
2021/12/04 13:37:25;;;;;;;0.70;0.50;;;23.50;32.20;;;;;;5034442;28;20037;-54
2021/12/04 13:39:56;;;;;;;0.77;0.60;;;23.50;32.10;;;;;;5034873;28;20281;-52
2021/12/04 13:42:22;;;;;;;0.60;0.40;;;23.50;32.00;;;;;;5034168;28;20089;-55
2021/12/04 13:44:48;;;;;;;0.55;0.47;;;23.50;32.10;;;;;;5034891;28;20030;-57
2021/12/04 13:47:13;;;;;;;0.40;0.40;;;23.50;32.00;;;;;;5017005;28;20116;-51
2021/12/04 13:50:07;;;;;;;0.43;0.43;;;23.50;32.00;;;;;;5034558;28;20108;-55
2021/12/04 13:52:33;;;;;;;0.70;0.55;;;23.60;32.00;;;;;;5034356;28;20034;-55
2021/12/04 13:55:08;;;;;;;0.50;0.50;;;23.60;32.00;;;;;;5032079;28;20048;-55
2021/12/04 13:57:38;;;;;;;0.55;0.45;;;23.60;32.00;;;;;;5021724;28;20033;-56
2021/12/04 14:00:05;;;;;;;0.38;0.38;;;23.60;31.90;;;;;;5057860;28;20043;-54
2021/12/04 14:02:31;;;;;;;0.50;0.38;;;23.60;31.90;;;;;;5049187;28;20029;-54
2021/12/04 14:05:12;;;;;;;0.60;0.40;;;23.60;31.90;;;;;;5039308;28;20095;-53
2021/12/04 14:07:45;;;;;;;0.80;0.40;;;23.60;31.90;;;;;;5051302;28;20040;-56
2021/12/04 14:10:16;;;;;;;0.50;0.40;;;23.60;32.10;;;;;;5047678;28;20025;-54
2021/12/04 14:12:42;;;;;;;0.50;0.50;;;23.60;32.40;;;;;;5051713;28;20449;-55
2021/12/04 14:15:18;;;;;;;0.40;0.40;;;23.70;32.60;;;;;;5032951;28;20037;-51
2021/12/04 14:17:45;;;;;;;0.43;0.40;;;23.70;32.80;;;;;;5052993;28;20025;-53
2021/12/04 14:20:21;;;;;;;0.98;0.50;;;23.70;32.80;;;;;;5046730;28;20107;-56
2021/12/04 14:22:50;;;;;;;0.57;0.40;;;23.80;32.90;;;;;;5050160;28;20029;-57
2021/12/04 14:25:17;;;;;;;0.50;0.40;;;23.80;32.90;;;;;;5050940;28;20124;-61
2021/12/04 14:27:44;;;;;;;0.45;0.40;;;23.80;32.90;;;;;;5053529;28;20033;-57
2021/12/04 14:30:18;;;;;;;1.35;0.50;;;23.90;33.30;;;;;;5050724;28;20079;-54
2021/12/04 14:32:50;;;;;;;0.50;0.43;;;23.90;32.80;;;;;;5052067;28;20025;-55
2021/12/04 14:35:17;;;;;;;3.10;0.50;;;24.00;32.80;;;;;;5055205;28;20094;-55
2021/12/04 14:37:49;;;;;;;1.08;0.50;;;24.00;32.80;;;;;;5055543;28;20060;-52
2021/12/04 14:40:22;;;;;;;0.45;0.45;;;24.00;32.80;;;;;;5045664;28;20102;-56
2021/12/04 14:42:49;;;;;;;0.40;0.35;;;24.00;32.70;;;;;;5054766;28;20123;-53
2021/12/04 14:45:24;;;;;;;0.52;0.50;;;24.00;32.60;;;;;;5057011;28;20028;-57
2021/12/04 14:47:56;;;;;;;1.63;0.40;;;24.10;32.50;;;;;;5063582;28;20040;-56
2021/12/04 14:50:23;;;;;;;0.70;0.55;;;24.10;32.40;;;;;;5054146;28;20017;-53
2021/12/04 14:52:56;;;;;;;0.60;0.50;;;24.10;32.40;;;;;;5056695;28;20025;-56
2021/12/04 14:55:26;;;;;;;0.47;0.40;;;24.10;32.20;;;;;;5051118;28;20374;-54
2021/12/04 14:57:53;;;;;;;0.47;0.30;;;24.10;32.20;;;;;;5028695;28;20033;-56
2021/12/04 15:00:28;;;;;;;0.43;0.40;;;24.10;32.10;;;;;;5047524;28;20048;-57
2021/12/04 15:03:03;;;;;;;1.00;0.52;;;24.20;32.10;;;;;;5046541;28;20464;-54
2021/12/04 15:05:41;;;;;;;0.50;0.50;;;24.20;32.10;;;;;;5047546;28;20034;-55
2021/12/04 15:08:09;;;;;;;0.57;0.57;;;24.20;32.00;;;;;;5047158;28;20348;-55
2021/12/04 15:10:37;;;;;;;0.70;0.43;;;24.20;31.90;;;;;;5049552;28;20032;-55
2021/12/04 15:13:06;;;;;;;0.98;0.68;;;24.20;31.80;;;;;;5046227;28;20403;-52
2021/12/04 15:15:36;;;;;;;1.23;0.70;;;24.20;31.80;;;;;;5045410;28;20040;-55
2021/12/04 15:18:10;;;;;;;0.98;0.52;;;24.20;32.00;;;;;;5041343;28;20022;-58
2021/12/04 15:20:41;;;;;;;0.70;0.60;;;24.20;32.00;;;;;;5030985;28;20044;-52
2021/12/04 15:23:12;;;;;;;1.08;0.50;;;24.20;32.00;;;;;;5039484;28;20044;-53
2021/12/04 15:25:40;;;;;;;0.43;0.43;;;24.20;32.00;;;;;;5052220;28;20079;-53
2021/12/04 15:28:17;;;;;;;0.52;0.50;;;24.20;31.90;;;;;;5040018;28;20097;-51
2021/12/04 15:30:45;;;;;;;1.20;0.60;;;24.20;31.90;;;;;;5042831;28;20154;-52
2021/12/04 15:33:30;;;;;;;0.45;0.45;;;24.20;31.90;;;;;;5041665;28;20061;-53
2021/12/04 15:35:58;;;;;;;0.50;0.45;;;24.20;32.00;;;;;;5046045;28;20340;-54
2021/12/04 15:38:49;;;;;;;1.55;0.70;;;24.20;32.00;;;;;;5051316;28;20498;-47
2021/12/04 15:41:34;;;;;;;0.70;0.47;;;24.20;31.90;;;;;;5036789;28;20029;-54
2021/12/04 15:54:14;;;;;;;1.10;0.80;;;24.20;31.80;;;;;;5043996;28;20440;-54
2021/12/04 15:56:47;;;;;;;0.50;0.50;;;24.30;31.80;;;;;;5049990;28;20029;-52
2021/12/04 15:59:16;;;;;;;0.80;0.60;;;24.20;31.70;;;;;;5041162;28;20028;-57
2021/12/04 16:01:44;;;;;;;0.60;0.60;;;24.20;31.70;;;;;;5049003;28;20425;-54
2021/12/04 16:04:23;;;;;;;0.75;0.70;;;24.20;31.70;;;;;;5037933;28;20113;-54
2021/12/04 16:06:49;;;;;;;0.60;0.60;;;24.30;31.70;;;;;;5035848;28;20036;-51
2021/12/04 16:09:27;;;;;;;0.95;0.65;;;24.20;31.70;;;;;;5037460;28;20025;-52
2021/12/04 16:12:00;;;;;;;0.80;0.70;;;24.30;31.70;;;;;;5049606;28;20036;-53
2021/12/04 16:14:34;;;;;;;0.70;0.60;;;24.30;31.70;;;;;;5033600;28;20045;-52
2021/12/04 16:17:03;;;;;;;1.73;0.70;;;24.30;31.60;;;;;;5045054;28;20128;-53
2021/12/04 16:19:30;;;;;;;1.23;0.80;;;24.30;31.60;;;;;;5047182;28;20079;-56
2021/12/04 16:22:01;;;;;;;1.08;0.80;;;24.30;31.60;;;;;;5039151;28;20036;-52
2021/12/04 16:24:27;;;;;;;0.85;0.68;;;24.30;32.20;;;;;;5037488;28;20026;-56